Time;durP1;ratioP1;P1;durP2;ratioP2;P2;SDS_P1;SDS_P2;PMS_P1;PMS_P2;Temp;Humidity;BMP_temperature;BMP_pressure;BME280_temperature;BME280_humidity;BME280_pressure;Samples;Min_cycle;Max_cycle;Signal;HPM_P1;HPM_P2
2022/09/17 00:01:31;;;;;;;1.67;0.80;;;20.10;59.40;;;;;;4082863;28;20049;-38
2022/09/17 00:03:57;;;;;;;3.15;0.88;;;20.10;59.40;;;;;;4086132;28;20065;-37
2022/09/17 00:06:21;;;;;;;1.88;0.80;;;20.10;59.30;;;;;;4086003;28;20046;-37
2022/09/17 00:08:44;;;;;;;2.22;0.70;;;20.10;59.30;;;;;;4083292;28;20478;-39
2022/09/17 00:11:22;;;;;;;3.40;1.38;;;20.10;59.20;;;;;;4073990;28;20043;-38
2022/09/17 00:13:45;;;;;;;1.45;0.60;;;20.10;59.20;;;;;;4072869;28;20868;-38
2022/09/17 00:16:09;;;;;;;3.08;0.63;;;20.10;59.20;;;;;;4075953;28;20055;-39
2022/09/17 00:18:32;;;;;;;2.22;0.70;;;20.10;59.10;;;;;;4079897;28;20106;-38
2022/09/17 00:20:55;;;;;;;1.10;0.50;;;20.10;59.10;;;;;;4080397;28;20800;-38
2022/09/17 00:23:17;;;;;;;2.33;0.80;;;20.20;59.10;;;;;;4073196;28;20050;-39
2022/09/17 00:25:42;;;;;;;2.38;0.73;;;20.10;59.00;;;;;;4074085;28;20094;-38
2022/09/17 00:28:05;;;;;;;5.20;1.05;;;20.20;59.30;;;;;;4077137;28;20126;-38
2022/09/17 00:30:27;;;;;;;2.13;0.73;;;20.10;59.30;;;;;;4072845;28;20091;-38
2022/09/17 00:32:52;;;;;;;2.75;0.50;;;20.20;59.10;;;;;;4070611;28;20034;-39
2022/09/17 00:35:14;;;;;;;1.13;0.77;;;20.20;59.00;;;;;;4076450;28;20503;-39
2022/09/17 00:37:37;;;;;;;1.08;0.68;;;20.20;59.10;;;;;;4072942;28;20466;-39
2022/09/17 00:40:00;;;;;;;2.75;0.80;;;20.20;58.90;;;;;;4072575;28;20078;-37
2022/09/17 00:42:23;;;;;;;5.00;0.80;;;20.20;58.80;;;;;;4077027;28;20094;-38
2022/09/17 00:44:54;;;;;;;0.80;0.45;;;20.30;59.10;;;;;;4071922;28;20607;-38
2022/09/17 00:47:28;;;;;;;2.67;0.50;;;20.20;59.20;;;;;;4074734;28;20125;-38
2022/09/17 00:50:05;;;;;;;5.47;0.90;;;20.20;59.30;;;;;;4073703;28;20260;-38
2022/09/17 00:52:54;;;;;;;0.60;0.50;;;20.20;59.40;;;;;;4078963;28;20035;-38
2022/09/17 00:55:20;;;;;;;7.55;0.88;;;20.20;59.40;;;;;;4074413;28;20043;-38
2022/09/17 00:57:44;;;;;;;5.18;1.50;;;20.20;59.70;;;;;;4078306;28;20045;-38
2022/09/17 01:00:08;;;;;;;3.72;0.70;;;20.20;59.70;;;;;;4071635;28;20054;-37
2022/09/17 01:02:31;;;;;;;3.42;1.27;;;20.20;59.60;;;;;;4073045;28;20256;-38
2022/09/17 01:04:55;;;;;;;3.35;0.90;;;20.20;59.70;;;;;;4074976;28;20122;-39
2022/09/17 01:07:26;;;;;;;2.58;0.95;;;20.20;59.80;;;;;;4069521;28;20480;-39
2022/09/17 01:10:09;;;;;;;11.20;1.50;;;20.30;59.70;;;;;;4071172;28;20043;-41
2022/09/17 01:12:46;;;;;;;9.35;1.23;;;20.30;59.60;;;;;;4071789;28;20043;-39
2022/09/17 01:15:22;;;;;;;3.45;0.90;;;20.40;59.30;;;;;;4078046;28;20285;-38
2022/09/17 01:18:13;;;;;;;7.43;1.70;;;20.40;59.70;;;;;;4076666;28;20593;-38
2022/09/17 01:21:16;;;;;;;8.07;1.10;;;20.50;59.40;;;;;;4080980;28;20031;-37
2022/09/17 01:24:01;;;;;;;3.53;0.88;;;20.50;58.80;;;;;;4062455;28;20106;-41
2022/09/17 01:26:45;;;;;;;6.10;1.30;;;20.50;58.30;;;;;;4085796;28;20090;-38
2022/09/17 01:29:31;;;;;;;7.50;1.02;;;20.50;58.10;;;;;;4088220;28;20093;-38
2022/09/17 01:31:59;;;;;;;1.83;0.75;;;20.50;57.80;;;;;;4090803;28;20043;-38
2022/09/17 01:35:00;;;;;;;6.05;1.10;;;20.50;57.70;;;;;;4077725;28;20050;-38
2022/09/17 01:37:39;;;;;;;2.90;0.85;;;20.50;57.50;;;;;;4048356;29;20079;-38
2022/09/17 01:40:11;;;;;;;2.80;0.70;;;20.50;57.40;;;;;;4049702;29;20044;-38
2022/09/17 01:43:03;;;;;;;1.13;0.60;;;20.50;57.20;;;;;;4069230;28;20058;-38
2022/09/17 01:45:58;;;;;;;1.17;0.55;;;20.50;57.10;;;;;;4083485;28;20806;-39
2022/09/17 01:48:22;;;;;;;;;;;20.50;57.00;;;;;;4079385;28;20062;-37
2022/09/17 01:51:13;;;;;;;1.67;0.70;;;20.50;56.90;;;;;;4085473;28;19914;-37
2022/09/17 01:53:51;;;;;;;1.23;0.70;;;20.50;56.80;;;;;;4084390;28;20047;-37
2022/09/17 01:56:18;;;;;;;1.63;0.63;;;20.50;56.50;;;;;;4086642;28;20039;-39
2022/09/17 01:59:05;;;;;;;1.48;0.88;;;20.50;56.40;;;;;;4082328;28;20035;-38
2022/09/17 02:01:32;;;;;;;3.40;0.80;;;20.50;56.40;;;;;;4081759;28;20039;-41
2022/09/17 02:04:04;;;;;;;0.60;0.57;;;20.50;56.30;;;;;;4080965;28;20047;-38
2022/09/17 02:06:31;;;;;;;1.88;0.77;;;20.50;56.40;;;;;;4082723;28;20047;-38
2022/09/17 02:09:16;;;;;;;0.93;0.57;;;20.50;56.10;;;;;;4080524;28;20039;-39
2022/09/17 02:11:43;;;;;;;0.60;0.35;;;20.50;56.00;;;;;;4075939;28;20122;-38
2022/09/17 02:14:14;;;;;;;1.38;0.75;;;20.50;55.80;;;;;;4077921;28;20647;-39
2022/09/17 02:16:42;;;;;;;0.98;0.50;;;20.50;55.70;;;;;;4077824;28;20040;-39
2022/09/17 02:19:32;;;;;;;1.08;0.63;;;20.50;55.60;;;;;;4077749;28;20510;-40
2022/09/17 02:22:19;;;;;;;1.17;0.52;;;20.50;55.30;;;;;;4074467;28;20382;-38
2022/09/17 02:25:09;;;;;;;1.17;0.80;;;20.50;55.20;;;;;;4078461;28;20046;-38
2022/09/17 02:27:41;;;;;;;1.52;0.63;;;20.50;55.20;;;;;;4075019;28;20039;-38
2022/09/17 02:30:05;;;;;;;1.13;0.65;;;20.50;55.20;;;;;;4059859;29;20593;-48
2022/09/17 02:32:28;;;;;;;1.15;0.90;;;20.50;55.00;;;;;;4075723;28;20466;-41
2022/09/17 02:34:52;;;;;;;0.75;0.60;;;20.50;55.00;;;;;;4072729;28;20399;-38
2022/09/17 02:37:14;;;;;;;0.93;0.55;;;20.50;54.80;;;;;;4078382;28;20574;-38
2022/09/17 02:39:37;;;;;;;1.27;0.70;;;20.60;55.00;;;;;;4077797;28;20046;-38
2022/09/17 02:42:16;;;;;;;0.98;0.70;;;20.60;54.80;;;;;;4078077;28;20043;-38
2022/09/17 02:44:55;;;;;;;2.08;0.80;;;20.60;54.90;;;;;;4068546;28;20078;-38
2022/09/17 02:47:39;;;;;;;1.35;0.77;;;20.60;54.70;;;;;;4074850;28;20035;-41
2022/09/17 02:50:09;;;;;;;3.15;1.00;;;20.60;54.70;;;;;;4083557;28;20043;-39
2022/09/17 02:52:53;;;;;;;1.35;0.68;;;20.60;54.70;;;;;;4077831;28;20485;-38
2022/09/17 02:55:18;;;;;;;;;;;20.60;54.60;;;;;;4083552;28;20043;-39
2022/09/17 02:58:13;;;;;;;1.75;0.80;;;20.60;54.50;;;;;;4078690;28;20001;-38
2022/09/17 03:00:36;;;;;;;2.30;1.10;;;20.70;54.50;;;;;;4073625;28;20039;-40
2022/09/17 03:03:21;;;;;;;1.90;0.60;;;20.70;55.00;;;;;;4071877;28;20393;-39
2022/09/17 03:05:44;;;;;;;2.70;0.90;;;20.70;54.30;;;;;;4083060;28;20047;-42
2022/09/17 03:08:08;;;;;;;2.25;0.77;;;20.70;54.20;;;;;;4083821;28;20043;-38
2022/09/17 03:10:32;;;;;;;0.88;0.65;;;20.70;54.90;;;;;;4085045;28;20043;-39
2022/09/17 03:12:55;;;;;;;1.17;0.60;;;20.70;54.10;;;;;;4087634;28;20058;-39
2022/09/17 03:15:17;;;;;;;1.75;0.63;;;20.70;54.00;;;;;;4081500;28;20079;-39
2022/09/17 03:17:40;;;;;;;0.70;0.70;;;20.70;54.80;;;;;;4079965;28;20035;-38
2022/09/17 03:20:04;;;;;;;2.40;0.80;;;20.70;54.10;;;;;;4081214;28;20059;-37
2022/09/17 03:22:26;;;;;;;1.48;0.75;;;20.70;54.20;;;;;;4088102;28;20059;-37
2022/09/17 03:24:49;;;;;;;1.08;0.63;;;20.70;54.20;;;;;;4091453;28;20043;-39
2022/09/17 03:27:12;;;;;;;0.93;0.60;;;20.70;54.30;;;;;;4078204;28;20035;-38
2022/09/17 03:29:35;;;;;;;2.25;1.27;;;20.70;54.00;;;;;;4078392;28;20427;-41
2022/09/17 03:31:58;;;;;;;0.95;0.50;;;20.80;53.90;;;;;;4081184;28;20481;-38
2022/09/17 03:34:20;;;;;;;1.95;0.70;;;20.80;53.90;;;;;;4086563;28;20081;-41
2022/09/17 03:36:43;;;;;;;0.93;0.52;;;20.80;53.90;;;;;;4086177;28;20046;-37
2022/09/17 03:39:06;;;;;;;1.80;0.70;;;20.80;53.90;;;;;;4077295;28;20362;-40
2022/09/17 03:41:29;;;;;;;0.98;0.60;;;20.80;54.00;;;;;;4081720;28;20417;-38
2022/09/17 03:43:52;;;;;;;1.63;0.65;;;20.80;54.00;;;;;;4083273;28;20511;-38
2022/09/17 03:46:14;;;;;;;1.10;0.70;;;20.80;54.10;;;;;;4080630;28;20063;-38
2022/09/17 03:48:38;;;;;;;1.35;0.70;;;20.80;54.20;;;;;;4084461;28;20039;-38
2022/09/17 03:51:01;;;;;;;1.23;0.70;;;20.90;54.10;;;;;;4080014;28;20254;-39
2022/09/17 03:53:24;;;;;;;0.80;0.60;;;20.90;54.00;;;;;;4086653;28;20404;-38
2022/09/17 03:55:46;;;;;;;0.75;0.60;;;20.90;54.00;;;;;;4084914;28;20442;-40
2022/09/17 03:58:09;;;;;;;1.25;0.60;;;21.00;54.10;;;;;;4080785;28;20468;-39
2022/09/17 04:00:32;;;;;;;0.88;0.63;;;21.00;54.00;;;;;;4081143;28;20486;-38
2022/09/17 04:02:55;;;;;;;0.50;0.47;;;21.10;54.00;;;;;;4082377;28;20475;-38
2022/09/17 04:05:18;;;;;;;0.50;0.50;;;21.10;54.10;;;;;;4081592;28;20093;-40
2022/09/17 04:07:41;;;;;;;1.08;0.50;;;21.20;54.70;;;;;;4087534;28;20046;-40
2022/09/17 04:10:04;;;;;;;1.38;0.60;;;21.20;54.00;;;;;;4086254;28;20057;-39
2022/09/17 04:12:27;;;;;;;0.73;0.50;;;21.30;54.00;;;;;;4082180;28;20046;-38
2022/09/17 04:14:50;;;;;;;0.60;0.50;;;21.30;53.90;;;;;;4086050;28;20051;-39
2022/09/17 04:17:16;;;;;;;1.20;0.50;;;21.40;53.80;;;;;;4084321;28;20039;-41
2022/09/17 04:19:39;;;;;;;0.63;0.50;;;21.40;53.90;;;;;;4084475;28;20035;-40
2022/09/17 04:22:02;;;;;;;0.47;0.40;;;21.50;53.70;;;;;;4085232;28;20054;-42
2022/09/17 04:24:24;;;;;;;0.55;0.45;;;21.60;53.70;;;;;;4084676;28;20051;-41
2022/09/17 04:26:47;;;;;;;1.13;0.60;;;21.60;53.50;;;;;;4090205;28;20031;-40
2022/09/17 04:29:10;;;;;;;1.17;0.60;;;21.60;53.30;;;;;;4087442;28;20118;-41
2022/09/17 04:31:32;;;;;;;0.60;0.50;;;21.60;53.70;;;;;;4087836;28;20040;-38
2022/09/17 04:33:55;;;;;;;1.45;0.50;;;21.60;53.50;;;;;;4088722;28;20090;-39
2022/09/17 04:36:18;;;;;;;0.43;0.40;;;21.70;53.40;;;;;;4088605;28;20525;-39
2022/09/17 04:38:40;;;;;;;0.43;0.40;;;21.70;53.30;;;;;;4086760;28;20124;-40
2022/09/17 04:41:05;;;;;;;0.80;0.50;;;21.80;53.10;;;;;;4081752;28;20495;-38
2022/09/17 04:43:28;;;;;;;0.30;0.30;;;21.80;53.30;;;;;;4093230;28;20146;-39
2022/09/17 04:45:51;;;;;;;0.57;0.50;;;21.80;53.10;;;;;;4094244;28;20058;-40
2022/09/17 04:48:13;;;;;;;0.65;0.50;;;21.80;53.00;;;;;;4091658;28;20036;-40
2022/09/17 04:50:36;;;;;;;0.88;0.40;;;21.80;52.90;;;;;;4086727;28;20117;-42
2022/09/17 04:52:59;;;;;;;1.38;0.40;;;21.80;52.90;;;;;;4094230;28;20039;-39
2022/09/17 04:55:21;;;;;;;0.70;0.40;;;21.70;53.00;;;;;;4094003;28;20084;-40
2022/09/17 04:57:49;;;;;;;0.40;0.30;;;21.70;53.00;;;;;;4095084;28;20045;-39
2022/09/17 05:00:12;;;;;;;0.75;0.45;;;21.70;53.10;;;;;;4092310;28;20456;-39
2022/09/17 05:02:35;;;;;;;0.93;0.65;;;21.70;53.20;;;;;;4094543;28;20039;-40
2022/09/17 05:04:58;;;;;;;0.55;0.40;;;21.70;53.00;;;;;;4084028;28;20554;-41
2022/09/17 05:07:20;;;;;;;0.82;0.60;;;21.70;53.00;;;;;;4091459;28;20411;-42
2022/09/17 05:09:43;;;;;;;0.80;0.50;;;21.80;52.90;;;;;;4092002;28;20130;-38
2022/09/17 05:12:06;;;;;;;0.30;0.30;;;21.70;52.90;;;;;;4084683;28;20050;-39
2022/09/17 05:14:29;;;;;;;0.63;0.57;;;21.80;53.10;;;;;;4087858;28;20347;-40
2022/09/17 05:16:51;;;;;;;0.60;0.50;;;21.80;53.20;;;;;;4084190;28;20491;-40
2022/09/17 05:19:15;;;;;;;0.55;0.55;;;22.00;53.00;;;;;;4091038;28;20047;-42
2022/09/17 05:21:37;;;;;;;0.47;0.40;;;22.00;52.80;;;;;;4088294;28;20429;-41
2022/09/17 05:24:00;;;;;;;0.47;0.47;;;22.10;52.60;;;;;;4084862;28;20054;-41
2022/09/17 05:26:23;;;;;;;1.40;0.40;;;22.20;52.50;;;;;;4090857;28;20062;-41
2022/09/17 05:28:46;;;;;;;0.90;0.52;;;22.20;52.40;;;;;;4091703;28;20078;-40
2022/09/17 05:31:09;;;;;;;0.50;0.47;;;22.30;52.20;;;;;;4084174;28;20377;-40
2022/09/17 05:33:31;;;;;;;0.65;0.55;;;22.20;52.00;;;;;;4091657;28;20703;-38
2022/09/17 05:35:54;;;;;;;1.00;0.50;;;22.20;52.30;;;;;;4087226;28;20114;-43
2022/09/17 05:38:17;;;;;;;1.30;0.50;;;22.30;52.10;;;;;;4090688;28;20121;-38
2022/09/17 05:40:40;;;;;;;1.30;0.63;;;22.20;52.10;;;;;;4092781;28;20126;-42
2022/09/17 05:43:05;;;;;;;0.67;0.40;;;22.20;52.20;;;;;;4087525;28;20047;-37
2022/09/17 05:45:28;;;;;;;0.85;0.50;;;22.20;52.30;;;;;;4092029;28;20051;-39
2022/09/17 05:47:58;;;;;;;0.55;0.40;;;22.20;52.50;;;;;;4091486;28;20432;-40
2022/09/17 05:50:22;;;;;;;0.60;0.40;;;22.20;52.70;;;;;;4090894;28;20040;-38
2022/09/17 05:52:45;;;;;;;0.73;0.50;;;22.30;52.40;;;;;;4087064;28;20138;-39
2022/09/17 05:55:09;;;;;;;0.65;0.63;;;22.30;52.00;;;;;;4090271;28;20051;-38
2022/09/17 05:57:31;;;;;;;;;;;22.30;52.00;;;;;;4093833;28;20039;-40
2022/09/17 05:59:54;;;;;;;1.00;0.50;;;22.30;51.90;;;;;;4084295;28;19990;-41
2022/09/17 06:02:16;;;;;;;1.05;0.52;;;22.20;51.90;;;;;;4092049;28;20126;-39
2022/09/17 06:04:39;;;;;;;0.65;0.40;;;22.20;52.10;;;;;;4085613;28;20056;-44
2022/09/17 06:07:07;;;;;;;0.45;0.32;;;22.20;52.20;;;;;;4089880;28;20387;-39
2022/09/17 06:09:30;;;;;;;0.65;0.38;;;22.10;52.30;;;;;;4091128;28;20039;-41
2022/09/17 06:11:52;;;;;;;0.50;0.50;;;22.10;52.30;;;;;;4086509;28;20520;-38
2022/09/17 06:14:15;;;;;;;0.30;0.30;;;22.10;52.50;;;;;;4092210;28;20122;-40
2022/09/17 06:16:38;;;;;;;0.57;0.40;;;22.10;52.40;;;;;;4084261;28;20028;-42
2022/09/17 06:19:02;;;;;;;0.43;0.40;;;22.20;52.00;;;;;;4092000;28;20497;-39
2022/09/17 06:21:25;;;;;;;1.23;0.80;;;22.20;51.90;;;;;;4093230;28;20368;-42
2022/09/17 06:23:52;;;;;;;0.52;0.50;;;22.30;51.80;;;;;;4086585;28;20186;-40
2022/09/17 06:26:15;;;;;;;1.25;0.55;;;22.30;51.60;;;;;;4092251;28;20043;-39
2022/09/17 06:28:37;;;;;;;1.95;0.50;;;22.30;51.20;;;;;;4093360;28;20151;-41
2022/09/17 06:31:02;;;;;;;0.40;0.40;;;22.30;51.20;;;;;;4086290;28;20050;-39
2022/09/17 06:33:25;;;;;;;0.40;0.40;;;22.20;51.10;;;;;;4079757;28;20079;-38
2022/09/17 06:35:55;;;;;;;0.50;0.40;;;22.20;51.20;;;;;;4091163;28;20039;-38
2022/09/17 06:38:18;;;;;;;0.50;0.50;;;22.20;51.40;;;;;;4084900;28;20067;-38
2022/09/17 06:40:41;;;;;;;0.45;0.45;;;22.30;51.40;;;;;;4087756;28;20054;-38
2022/09/17 06:43:04;;;;;;;1.50;0.80;;;22.40;51.20;;;;;;4091279;28;20078;-38
2022/09/17 06:45:28;;;;;;;1.43;0.60;;;22.40;50.90;;;;;;4090280;28;20180;-39
2022/09/17 06:47:50;;;;;;;0.60;0.50;;;22.40;50.80;;;;;;4097276;28;20550;-39
2022/09/17 06:50:13;;;;;;;0.55;0.55;;;22.50;50.90;;;;;;4093719;28;20078;-38
2022/09/17 06:52:37;;;;;;;1.70;0.63;;;22.50;50.50;;;;;;4095567;28;20071;-38
2022/09/17 06:55:00;;;;;;;0.93;0.60;;;22.50;50.30;;;;;;4094135;28;20043;-42
2022/09/17 06:57:22;;;;;;;1.23;0.60;;;22.60;50.10;;;;;;4089624;28;20035;-37
2022/09/17 06:59:45;;;;;;;0.60;0.50;;;22.60;50.10;;;;;;4090074;28;20047;-38
2022/09/17 07:02:09;;;;;;;1.40;0.50;;;22.60;50.10;;;;;;4088564;28;20502;-38
2022/09/17 07:04:31;;;;;;;1.23;0.60;;;22.60;50.10;;;;;;4091366;28;21663;-38
2022/09/17 07:06:54;;;;;;;0.75;0.57;;;22.60;50.00;;;;;;4096715;28;20043;-39
2022/09/17 07:09:17;;;;;;;1.35;0.82;;;22.60;50.10;;;;;;4095337;28;20047;-40
2022/09/17 07:11:40;;;;;;;2.20;0.50;;;22.50;50.10;;;;;;4089762;28;20043;-41
2022/09/17 07:14:04;;;;;;;0.63;0.50;;;22.40;50.10;;;;;;4106155;28;20051;-37
2022/09/17 07:16:26;;;;;;;0.57;0.50;;;22.40;50.30;;;;;;4096146;28;20130;-37
2022/09/17 07:18:49;;;;;;;0.47;0.47;;;22.40;50.40;;;;;;4076138;28;20148;-39
2022/09/17 07:21:12;;;;;;;1.30;0.70;;;22.30;50.50;;;;;;4088403;28;20047;-39
2022/09/17 07:23:36;;;;;;;1.10;0.65;;;22.30;50.50;;;;;;4084989;28;20043;-38
2022/09/17 07:26:00;;;;;;;;;;;22.20;50.70;;;;;;4082350;28;20435;-39
2022/09/17 07:28:24;;;;;;;1.95;0.60;;;22.20;50.70;;;;;;4093359;28;19910;-42
2022/09/17 07:30:46;;;;;;;;;;;22.20;50.60;;;;;;4082991;28;20054;-38
2022/09/17 07:33:09;;;;;;;1.48;0.63;;;22.10;50.40;;;;;;4095143;28;19993;-38
2022/09/17 07:35:32;;;;;;;0.50;0.50;;;22.10;50.40;;;;;;4094222;28;20396;-38
2022/09/17 07:37:55;;;;;;;0.93;0.45;;;22.10;50.60;;;;;;4095525;28;20129;-38
2022/09/17 07:40:19;;;;;;;0.55;0.52;;;22.00;50.70;;;;;;4097319;28;20046;-39
2022/09/17 07:42:42;;;;;;;0.73;0.43;;;22.00;50.80;;;;;;4085832;28;20051;-41
2022/09/17 07:45:05;;;;;;;0.88;0.63;;;22.00;50.90;;;;;;4089125;28;20499;-41
2022/09/17 07:47:28;;;;;;;0.68;0.60;;;21.90;50.80;;;;;;4081290;28;20558;-39
2022/09/17 07:49:51;;;;;;;0.50;0.50;;;21.90;51.00;;;;;;4082790;28;20129;-40
2022/09/17 07:52:14;;;;;;;1.10;0.50;;;21.90;51.20;;;;;;4081141;28;20403;-42
2022/09/17 07:54:37;;;;;;;0.93;0.50;;;21.80;51.00;;;;;;4086094;28;20050;-39
2022/09/17 07:57:00;;;;;;;1.02;0.63;;;21.80;51.10;;;;;;4082005;28;20111;-43
2022/09/17 07:59:23;;;;;;;2.40;0.60;;;21.80;51.10;;;;;;4083246;28;20475;-40
2022/09/17 08:01:45;;;;;;;0.82;0.43;;;21.70;51.00;;;;;;4081520;28;20412;-39
2022/09/17 08:04:08;;;;;;;0.40;0.30;;;21.70;51.10;;;;;;4082727;28;20675;-39
2022/09/17 08:06:36;;;;;;;0.60;0.50;;;21.70;51.20;;;;;;4069576;28;20130;-39
2022/09/17 08:09:00;;;;;;;0.40;0.40;;;21.70;51.30;;;;;;4090873;28;20043;-39
2022/09/17 08:11:25;;;;;;;0.98;0.30;;;21.60;51.30;;;;;;4074937;28;20055;-43
2022/09/17 08:13:50;;;;;;;0.40;0.40;;;21.60;51.40;;;;;;4071514;28;20054;-39
2022/09/17 08:16:14;;;;;;;0.30;0.30;;;21.60;51.40;;;;;;4071350;28;20747;-42
2022/09/17 08:18:37;;;;;;;2.00;0.50;;;21.60;51.40;;;;;;4070077;28;20588;-41
2022/09/17 08:21:01;;;;;;;0.38;0.38;;;21.60;51.50;;;;;;4074196;28;20450;-46
2022/09/17 08:23:25;;;;;;;1.27;0.50;;;21.50;51.50;;;;;;4074165;28;20488;-40
2022/09/17 08:25:53;;;;;;;1.65;0.50;;;21.50;51.60;;;;;;4083614;28;20055;-39
2022/09/17 08:28:15;;;;;;;0.80;0.50;;;21.50;51.70;;;;;;4081013;28;20471;-39
2022/09/17 08:30:38;;;;;;;0.68;0.60;;;21.50;51.70;;;;;;4082829;28;20043;-42
2022/09/17 08:33:01;;;;;;;0.50;0.50;;;21.40;51.70;;;;;;4081275;28;20062;-39
2022/09/17 08:35:25;;;;;;;1.08;0.40;;;21.40;51.70;;;;;;4081186;28;20039;-38
2022/09/17 08:37:47;;;;;;;0.70;0.60;;;21.40;51.80;;;;;;4082617;28;20106;-38
2022/09/17 08:40:21;;;;;;;1.23;0.68;;;21.40;51.90;;;;;;4077362;28;20043;-39
2022/09/17 08:42:59;;;;;;;0.45;0.45;;;21.40;52.10;;;;;;4075362;28;20731;-38
2022/09/17 08:45:22;;;;;;;1.10;0.57;;;21.30;52.00;;;;;;4079415;28;20102;-38
2022/09/17 08:47:47;;;;;;;1.48;0.82;;;21.40;51.90;;;;;;4076909;28;20077;-38
2022/09/17 08:50:24;;;;;;;1.10;0.70;;;21.30;52.10;;;;;;4073309;28;20452;-38
2022/09/17 08:53:05;;;;;;;0.85;0.73;;;21.30;52.00;;;;;;4077695;28;20507;-39
2022/09/17 08:55:33;;;;;;;1.23;0.65;;;21.30;52.10;;;;;;4079792;28;20062;-39
2022/09/17 08:58:05;;;;;;;0.98;0.57;;;21.20;52.00;;;;;;4081623;28;20523;-38
2022/09/17 09:00:46;;;;;;;0.52;0.52;;;21.20;52.00;;;;;;4075149;28;20039;-39
2022/09/17 09:03:20;;;;;;;1.33;0.95;;;21.20;52.10;;;;;;4092586;28;20039;-38
2022/09/17 09:05:51;;;;;;;1.77;0.82;;;21.20;52.10;;;;;;4082601;28;20058;-40
2022/09/17 09:08:17;;;;;;;0.98;0.70;;;21.20;52.10;;;;;;4090989;28;20039;-42
2022/09/17 09:11:12;;;;;;;1.25;0.82;;;21.20;52.20;;;;;;4091320;28;20090;-47
2022/09/17 09:13:42;;;;;;;1.85;0.60;;;21.20;52.20;;;;;;4087340;28;20138;-38
2022/09/17 09:16:16;;;;;;;1.50;0.70;;;21.10;52.10;;;;;;4090724;28;20046;-39
2022/09/17 09:18:41;;;;;;;1.25;0.90;;;21.10;52.10;;;;;;4086735;28;20039;-40
2022/09/17 09:21:22;;;;;;;1.17;0.80;;;21.10;52.30;;;;;;4087310;28;20031;-39
2022/09/17 09:24:17;;;;;;;1.98;1.10;;;21.10;52.10;;;;;;4079020;28;20463;-42
2022/09/17 09:26:47;;;;;;;1.35;1.00;;;21.10;52.20;;;;;;4084340;28;20050;-42
2022/09/17 09:29:27;;;;;;;2.05;0.85;;;21.10;52.20;;;;;;4087527;28;20514;-39
2022/09/17 09:31:57;;;;;;;2.80;1.10;;;21.00;52.10;;;;;;4085184;28;20144;-43
2022/09/17 09:34:22;;;;;;;1.27;0.80;;;21.00;52.00;;;;;;4084691;28;20043;-42
2022/09/17 09:36:45;;;;;;;1.65;1.02;;;21.00;51.90;;;;;;4086157;28;20078;-40
2022/09/17 09:39:28;;;;;;;1.33;0.93;;;21.00;51.90;;;;;;4088069;28;21028;-38
2022/09/17 09:42:10;;;;;;;1.40;0.90;;;21.00;51.90;;;;;;4084352;28;20082;-42
2022/09/17 09:44:33;;;;;;;2.03;1.10;;;20.90;51.90;;;;;;4084898;28;20066;-39
2022/09/17 09:47:14;;;;;;;1.02;0.90;;;20.90;51.90;;;;;;4087250;28;20051;-40
2022/09/17 09:50:10;;;;;;;3.22;1.10;;;20.90;51.80;;;;;;4082890;28;20050;-45
2022/09/17 09:53:20;;;;;;;1.80;1.30;;;20.90;51.90;;;;;;4084109;28;20054;-40
2022/09/17 09:55:49;;;;;;;2.08;1.00;;;20.90;52.00;;;;;;4082733;28;20170;-39
2022/09/17 09:58:35;;;;;;;1.70;1.10;;;20.80;51.90;;;;;;4083693;28;20480;-40
2022/09/17 10:00:59;;;;;;;1.70;1.08;;;20.80;51.80;;;;;;4084714;28;20048;-38
2022/09/17 10:03:22;;;;;;;;;;;20.80;51.80;;;;;;4079892;28;20123;-38
2022/09/17 10:06:05;;;;;;;2.50;1.17;;;20.80;51.80;;;;;;4085129;28;19937;-39
2022/09/17 10:08:32;;;;;;;1.83;1.25;;;20.80;51.80;;;;;;4084043;28;20075;-40
2022/09/17 10:11:01;;;;;;;1.95;1.27;;;20.80;51.70;;;;;;4085480;28;20574;-41
2022/09/17 10:13:25;;;;;;;2.55;1.20;;;20.80;51.70;;;;;;4087200;28;20040;-39
2022/09/17 10:15:47;;;;;;;2.42;1.30;;;20.70;51.90;;;;;;4089008;28;20049;-44
2022/09/17 10:18:21;;;;;;;1.80;1.27;;;20.70;51.70;;;;;;4084854;28;20089;-42
2022/09/17 10:21:00;;;;;;;1.75;1.10;;;20.70;51.70;;;;;;4085993;28;20043;-42
2022/09/17 10:23:25;;;;;;;1.48;1.05;;;20.70;52.20;;;;;;4082704;28;20530;-38
2022/09/17 10:25:50;;;;;;;2.28;1.10;;;20.70;51.90;;;;;;4087304;28;20081;-39
2022/09/17 10:28:44;;;;;;;1.75;1.02;;;20.70;51.70;;;;;;4081960;28;20240;-45
2022/09/17 10:31:09;;;;;;;1.50;1.20;;;20.60;51.70;;;;;;4086691;28;20044;-43
2022/09/17 10:33:33;;;;;;;2.42;1.00;;;20.70;52.00;;;;;;4087077;28;20038;-42
2022/09/17 10:36:13;;;;;;;1.08;0.95;;;20.60;51.90;;;;;;4085256;28;20514;-46
2022/09/17 10:38:44;;;;;;;2.75;1.55;;;20.60;52.20;;;;;;4086385;28;20047;-39
2022/09/17 10:41:23;;;;;;;2.40;1.25;;;20.60;52.10;;;;;;4087160;28;20388;-41
2022/09/17 10:43:46;;;;;;;2.13;1.27;;;20.60;52.10;;;;;;4066991;29;20048;-41
2022/09/17 10:46:24;;;;;;;2.63;1.23;;;20.60;52.10;;;;;;4068919;29;20102;-41
2022/09/17 10:48:57;;;;;;;1.45;1.05;;;20.60;52.20;;;;;;4069507;29;20489;-46
2022/09/17 10:51:23;;;;;;;1.48;0.85;;;20.50;51.90;;;;;;4070916;29;20474;-42
2022/09/17 10:54:13;;;;;;;1.65;1.00;;;20.50;52.20;;;;;;4068090;29;20050;-45
2022/09/17 10:56:40;;;;;;;2.10;1.17;;;20.50;52.40;;;;;;4073175;29;20152;-41
2022/09/17 10:59:20;;;;;;;2.22;1.33;;;20.50;52.40;;;;;;4071027;29;20483;-41
2022/09/17 11:02:03;;;;;;;2.10;1.15;;;20.50;52.50;;;;;;4071499;29;20151;-40
2022/09/17 11:04:32;;;;;;;1.52;1.10;;;20.50;52.80;;;;;;4074415;29;20039;-39
2022/09/17 11:07:19;;;;;;;2.45;1.27;;;20.40;52.20;;;;;;4071750;29;20044;-39
2022/09/17 11:09:48;;;;;;;1.15;0.82;;;20.40;52.30;;;;;;4071996;29;20044;-38
2022/09/17 11:12:29;;;;;;;1.80;1.20;;;20.40;52.60;;;;;;4072614;29;20039;-38
2022/09/17 11:14:57;;;;;;;1.55;1.05;;;20.40;52.40;;;;;;4070469;29;20054;-38
2022/09/17 11:17:49;;;;;;;2.22;1.25;;;20.40;52.10;;;;;;4072146;29;20380;-46
2022/09/17 11:20:36;;;;;;;2.38;1.30;;;20.30;52.30;;;;;;4069624;29;20047;-38
2022/09/17 11:23:17;;;;;;;1.38;1.00;;;20.30;52.10;;;;;;4073080;29;20456;-38
2022/09/17 11:25:55;;;;;;;1.55;1.02;;;20.30;52.00;;;;;;4069567;29;20074;-39
2022/09/17 11:28:32;;;;;;;1.88;1.25;;;20.30;52.40;;;;;;4069153;29;20062;-40
2022/09/17 11:31:08;;;;;;;1.38;0.90;;;20.30;52.30;;;;;;4071065;29;20150;-40
2022/09/17 11:33:50;;;;;;;1.38;1.00;;;20.30;52.70;;;;;;4071269;29;20040;-42
2022/09/17 11:36:43;;;;;;;1.95;1.20;;;20.20;52.30;;;;;;4075858;28;20059;-42
2022/09/17 11:39:47;;;;;;;1.48;0.90;;;20.20;51.80;;;;;;4070953;29;20044;-38
2022/09/17 11:42:18;;;;;;;2.05;1.00;;;20.20;52.00;;;;;;4074118;28;20122;-41
2022/09/17 11:45:24;;;;;;;1.30;0.82;;;20.20;52.10;;;;;;4087901;28;20059;-38
2022/09/17 11:48:23;;;;;;;1.35;0.90;;;20.10;52.30;;;;;;4087092;28;20043;-39
2022/09/17 11:50:58;;;;;;;1.77;0.90;;;20.20;52.00;;;;;;4089466;28;20067;-38
2022/09/17 11:53:22;;;;;;;1.20;0.80;;;20.10;52.20;;;;;;4091994;28;20036;-39
2022/09/17 11:55:53;;;;;;;2.10;1.17;;;20.10;52.50;;;;;;4093535;28;20093;-41
2022/09/17 11:58:38;;;;;;;1.45;0.95;;;20.10;52.50;;;;;;4087020;28;20149;-43
2022/09/17 12:01:29;;;;;;;2.30;1.20;;;20.10;52.50;;;;;;4089884;28;20070;-41
2022/09/17 12:04:29;;;;;;;7.32;1.13;;;20.10;52.70;;;;;;4091548;28;20043;-39
2022/09/17 12:07:30;;;;;;;4.68;1.15;;;20.00;52.50;;;;;;4084785;28;20422;-42
2022/09/17 12:09:59;;;;;;;2.50;1.20;;;20.10;52.90;;;;;;4085688;28;20047;-41
2022/09/17 12:12:27;;;;;;;6.57;0.90;;;20.10;53.20;;;;;;4093778;28;20039;-40
2022/09/17 12:15:25;;;;;;;6.53;1.08;;;20.10;53.30;;;;;;4089158;28;20174;-39
2022/09/17 12:18:13;;;;;;;3.38;1.25;;;20.10;53.40;;;;;;4086417;28;20062;-38
2022/09/17 12:20:38;;;;;;;2.67;1.08;;;20.10;53.70;;;;;;4091892;28;20106;-39
2022/09/17 12:23:06;;;;;;;3.97;1.02;;;20.10;53.80;;;;;;4090302;28;20502;-40
2022/09/17 12:25:39;;;;;;;8.65;1.17;;;20.10;53.90;;;;;;4084737;28;20421;-39
2022/09/17 12:28:15;;;;;;;3.65;1.17;;;20.20;54.00;;;;;;4090523;28;20080;-38
2022/09/17 12:30:51;;;;;;;9.93;1.10;;;20.20;54.10;;;;;;4088945;28;20125;-40
2022/09/17 12:33:24;;;;;;;7.18;1.35;;;20.20;54.10;;;;;;4088866;28;20046;-39
2022/09/17 12:36:05;;;;;;;5.90;1.40;;;20.20;54.00;;;;;;4087553;28;20088;-39
2022/09/17 12:38:47;;;;;;;3.65;0.73;;;20.20;53.90;;;;;;4092882;28;20039;-38
2022/09/17 12:41:39;;;;;;;6.28;0.98;;;20.20;53.80;;;;;;4090819;28;20372;-42
2022/09/17 12:44:10;;;;;;;2.15;0.82;;;20.20;53.70;;;;;;4062631;29;20111;-38
2022/09/17 12:46:49;;;;;;;3.65;0.95;;;20.20;53.70;;;;;;4073703;29;20571;-38
2022/09/17 12:49:27;;;;;;;1.67;0.82;;;20.20;53.90;;;;;;4068833;28;20479;-38
2022/09/17 12:52:07;;;;;;;1.70;0.90;;;20.20;52.80;;;;;;4069793;28;20082;-41
2022/09/17 12:54:39;;;;;;;2.17;0.90;;;20.20;52.10;;;;;;4069105;29;20130;-37
2022/09/17 12:57:16;;;;;;;19.63;2.60;;;20.10;51.80;;;;;;4078230;29;20106;-38
2022/09/17 12:59:59;;;;;;;25.13;3.10;;;20.10;53.00;;;;;;4071122;29;20042;-40
2022/09/17 13:02:51;;;;;;;18.08;2.47;;;20.10;53.20;;;;;;4075070;29;20435;-42